createdAt,value
2024-03-16T00:04:33.697Z,95.55
2024-03-16T00:09:35.434Z,95.55
2024-03-16T00:14:37.165Z,95.14
2024-03-16T00:19:38.835Z,95.41
2024-03-16T00:24:40.454Z,95.85
2024-03-16T00:29:42.078Z,95.72
2024-03-16T00:34:44.117Z,95.17
2024-03-16T00:39:45.856Z,95.46
2024-03-16T00:44:47.429Z,95.57
2024-03-16T00:49:49.061Z,95.99
2024-03-16T00:54:50.651Z,96.20
2024-03-16T00:59:52.483Z,97.05
2024-03-16T01:04:54.144Z,97.45
2024-03-16T01:09:56.780Z,97.72
2024-03-16T01:14:58.582Z,98.42
2024-03-16T01:20:00.643Z,97.82
2024-03-16T01:25:02.949Z,97.57
2024-03-16T01:30:10.517Z,98.19
2024-03-16T01:35:31.775Z,96.78
2024-03-16T01:40:33.594Z,96.43
2024-03-16T01:45:35.266Z,95.60
2024-03-16T01:50:40.763Z,96.61
2024-03-16T01:55:42.379Z,96.63
2024-03-16T02:00:48.425Z,95.57
2024-03-16T02:05:50.313Z,96.10
2024-03-16T02:10:51.974Z,95.84
2024-03-16T02:15:53.698Z,96.50
2024-03-16T02:20:55.474Z,97.52
2024-03-16T02:25:57.066Z,96.38
2024-03-16T02:30:58.725Z,95.60
2024-03-16T02:36:00.345Z,96.42
2024-03-16T02:41:03.213Z,97.24
2024-03-16T02:46:06.573Z,98.09
2024-03-16T02:51:08.455Z,99.04
2024-03-16T02:56:10.101Z,99.10
2024-03-16T03:01:11.757Z,99.55
2024-03-16T03:06:13.889Z,100.00
2024-03-16T03:11:15.760Z,100.00
2024-03-16T03:16:21.043Z,100.00
2024-03-16T03:21:22.634Z,100.00
2024-03-16T03:26:24.966Z,100.00
2024-03-16T03:31:26.886Z,100.00
2024-03-16T03:36:30.053Z,99.96
2024-03-16T03:41:31.641Z,98.33
2024-03-16T03:46:52.071Z,98.90
2024-03-16T03:51:55.290Z,98.97
2024-03-16T03:56:57.213Z,99.15
2024-03-16T04:01:58.876Z,100.00
2024-03-16T04:07:00.700Z,100.00
2024-03-16T04:12:02.700Z,100.00
2024-03-16T04:17:04.381Z,100.00
2024-03-16T04:22:06.393Z,100.00
2024-03-16T04:27:08.034Z,100.00
2024-03-16T04:32:10.919Z,100.00
2024-03-16T04:37:12.595Z,100.00
2024-03-16T04:42:14.747Z,100.00
2024-03-16T04:47:16.296Z,100.00
2024-03-16T04:52:18.001Z,100.00
2024-03-16T04:57:19.817Z,100.00
2024-03-16T05:02:21.548Z,100.00
2024-03-16T05:07:23.273Z,100.00
2024-03-16T05:12:26.135Z,100.00
2024-03-16T05:17:27.752Z,100.00
2024-03-16T05:22:31.005Z,100.00
2024-03-16T05:27:32.658Z,100.00
2024-03-16T05:32:34.342Z,100.00
2024-03-16T05:37:36.864Z,100.00
2024-03-16T05:42:39.483Z,100.00
2024-03-16T05:47:41.115Z,100.00
2024-03-16T05:52:42.684Z,100.00
2024-03-16T05:57:44.855Z,100.00
2024-03-16T06:02:46.576Z,100.00
2024-03-16T06:07:48.699Z,100.00
2024-03-16T06:12:51.173Z,100.00
2024-03-16T06:17:53.373Z,100.00
2024-03-16T06:22:56.722Z,99.88
2024-03-16T06:28:08.056Z,100.00
2024-03-16T06:33:10.449Z,100.00
2024-03-16T06:38:12.160Z,97.44
2024-03-16T06:43:13.734Z,93.39
2024-03-16T06:48:16.586Z,92.21
2024-03-16T06:53:18.149Z,92.06
2024-03-16T06:58:19.896Z,91.17
2024-03-16T07:03:21.572Z,90.48
2024-03-16T07:08:23.149Z,90.32
2024-03-16T07:13:25.785Z,88.51
2024-03-16T07:18:28.076Z,88.54
2024-03-16T07:23:29.775Z,86.96
2024-03-16T07:28:34.105Z,86.19
2024-03-16T07:33:37.103Z,86.52
2024-03-16T07:38:39.518Z,86.44
2024-03-16T07:43:41.522Z,85.69
2024-03-16T07:48:43.174Z,86.16
2024-03-16T07:53:44.760Z,86.87
2024-03-16T07:58:46.365Z,85.89
2024-03-16T08:03:47.952Z,86.74
2024-03-16T08:08:51.044Z,86.21
2024-03-16T08:13:52.672Z,87.66
2024-03-16T08:18:54.257Z,88.05
2024-03-16T08:23:55.845Z,89.35
2024-03-16T08:28:57.475Z,88.58
2024-03-16T08:33:59.718Z,88.23
2024-03-16T08:39:04.157Z,88.15
2024-03-16T08:44:05.931Z,88.92
2024-03-16T08:49:08.669Z,89.64
2024-03-16T08:54:11.274Z,87.83
2024-03-16T08:59:13.320Z,91.21
2024-03-16T09:04:16.425Z,92.80
2024-03-16T09:09:18.152Z,94.45
2024-03-16T09:14:19.780Z,96.38
2024-03-16T09:19:21.679Z,94.95
2024-03-16T09:24:23.615Z,91.83
2024-03-16T09:29:25.226Z,90.98
2024-03-16T09:34:26.843Z,90.65
2024-03-16T09:39:28.504Z,86.35
